NKS56 KPIT-KMYR
Flight info
| Callsign | NKS56 |
|---|---|
| Flight time | N/A |
| Altitude | 34000 |
| Route | CKB ROA/N0427F350 SBV RDU/N0435F340 |
| Aircraft | A320/M-SDE3FGHIRWY/LB1 |
Departure
| Time | 2026-05-04 03:23 |
|---|---|
| Airport | Pittsburgh International Airport (KPIT) |
Arrival
| Time | N/A |
|---|---|
| Airport | Myrtle Beach International Airport (KMYR) |
| Time | Latitude | Longitude | Altitude | Speed | Heading |
|---|---|---|---|---|---|
| 2026-05-04 02:52 | 40.49621 | -80.24452 | 1156 ft | 0 kts | 277° |
| 2026-05-04 03:08 | 40.49622 | -80.24461 | 1155 ft | 0 kts | 277° |
| 2026-05-04 03:08 | 40.49621 | -80.24449 | 1155 ft | 2 kts | 277° |
| 2026-05-04 03:08 | 40.49619 | -80.24428 | 1155 ft | 2 kts | 246° |
| 2026-05-04 03:08 | 40.49621 | -80.24420 | 1155 ft | 1 kts | 218° |
| 2026-05-04 03:17 | 40.49617 | -80.24419 | 1155 ft | 1 kts | 183° |
| 2026-05-04 03:17 | 40.49613 | -80.24412 | 1154 ft | 1 kts | 133° |
| 2026-05-04 03:18 | 40.49620 | -80.24378 | 1155 ft | 8 kts | 68° |
| 2026-05-04 03:18 | 40.49649 | -80.24328 | 1154 ft | 8 kts | 49° |
| 2026-05-04 03:18 | 40.49697 | -80.24253 | 1155 ft | 15 kts | 59° |
| 2026-05-04 03:18 | 40.49705 | -80.24225 | 1154 ft | 1 kts | 76° |
| 2026-05-04 03:19 | 40.49706 | -80.24094 | 1155 ft | 19 kts | 91° |
| 2026-05-04 03:19 | 40.49707 | -80.24002 | 1155 ft | 7 kts | 71° |
| 2026-05-04 03:19 | 40.49739 | -80.23967 | 1154 ft | 6 kts | 18° |
| 2026-05-04 03:19 | 40.49788 | -80.23962 | 1155 ft | 11 kts | 0° |
| 2026-05-04 03:20 | 40.49878 | -80.23960 | 1155 ft | 14 kts | 2° |
| 2026-05-04 03:20 | 40.49899 | -80.23959 | 1155 ft | 1 kts | 2° |
| 2026-05-04 03:20 | 40.49940 | -80.23956 | 1155 ft | 7 kts | 7° |
| 2026-05-04 03:20 | 40.49961 | -80.23940 | 1155 ft | 5 kts | 46° |
| 2026-05-04 03:21 | 40.49980 | -80.23889 | 1154 ft | 5 kts | 58° |
| 2026-05-04 03:21 | 40.50016 | -80.23855 | 1154 ft | 18 kts | 41° |
| 2026-05-04 03:21 | 40.50036 | -80.23735 | 1153 ft | 10 kts | 91° |
| 2026-05-04 03:21 | 40.50043 | -80.23637 | 1153 ft | 11 kts | 67° |
| 2026-05-04 03:22 | 40.50106 | -80.23606 | 1151 ft | 13 kts | 336° |
| 2026-05-04 03:22 | 40.50146 | -80.23715 | 1149 ft | 17 kts | 273° |
| 2026-05-04 03:22 | 40.50156 | -80.24159 | 1153 ft | 87 kts | 273° |
| 2026-05-04 03:22 | 40.50185 | -80.25261 | 1148 ft | 150 kts | 271° |
| 2026-05-04 03:23 | 40.50232 | -80.26785 | 1463 ft | 175 kts | 271° |
| 2026-05-04 03:23 | 40.50465 | -80.28351 | 2253 ft | 176 kts | 291° |
| 2026-05-04 03:23 | 40.51194 | -80.29651 | 3106 ft | 179 kts | 309° |